Terminal Aerodrome Forecast
Issued by NWS

Home | Current Version | Previous Version | Text Only | Print | Product List | Glossary On
Versions: 1 2 3 4 5 6 7 8 9 10 11 12 13 14 15 16 17 18 19 20 21 22 23
000
FTUS46 KLOX 210540
TAFOXR
TAF
KOXR 210540Z 2106/2206 VRB05KT P6SM SKC
     FM211100 VRB03KT 5SM BR BKN008
     FM211400 VRB03KT P6SM BKN012
     FM211700 26006KT P6SM SCT015
     FM212000 26011KT P6SM SKC
     FM220400 VRB05KT P6SM SKC=

USA.gov is the U.S. government's official web portal to all federal, state and local government web resources and services.